Time;durP1;ratioP1;P1;durP2;ratioP2;P2;SDS_P1;SDS_P2;PMS_P1;PMS_P2;Temp;Humidity;BMP_temperature;BMP_pressure;BME280_temperature;BME280_humidity;BME280_pressure;Samples;Min_cycle;Max_cycle;Signal;HPM_P1;HPM_P2
2021/12/23 00:01:18;;;;;;;34.67;19.50;;;1.50;99.90;;;;;;4939333;29;20230;-77
2021/12/23 00:03:44;;;;;;;45.88;20.38;;;1.70;99.90;;;;;;4941664;28;20206;-80
2021/12/23 00:06:09;;;;;;;37.13;19.45;;;1.60;99.90;;;;;;4940530;29;20171;-84
2021/12/23 00:08:35;;;;;;;40.15;19.75;;;1.50;99.90;;;;;;4943950;29;20195;-77
2021/12/23 00:11:01;;;;;;;50.57;21.93;;;1.50;99.90;;;;;;4941145;29;20217;-80
2021/12/23 00:13:27;;;;;;;37.85;20.55;;;1.50;99.90;;;;;;4946293;29;20194;-78
2021/12/23 00:18:42;;;;;;;42.95;21.65;;;1.50;99.90;;;;;;4939947;29;20211;-85
2021/12/23 00:23:57;;;;;;;46.13;20.02;;;1.50;99.90;;;;;;4938665;29;20210;-78
2021/12/23 00:26:22;;;;;;;43.80;20.75;;;1.50;99.90;;;;;;4939682;29;20190;-77
2021/12/23 00:28:48;;;;;;;41.05;18.58;;;1.50;99.90;;;;;;4953002;29;20195;-77
2021/12/23 00:31:15;;;;;;;41.45;20.13;;;1.40;99.90;;;;;;4952850;29;20221;-78
2021/12/23 00:33:42;;;;;;;39.45;20.20;;;1.50;99.90;;;;;;4938989;29;20251;-85
2021/12/23 00:36:09;;;;;;;36.55;19.88;;;1.70;99.90;;;;;;4938201;29;20648;-77
2021/12/23 00:38:41;;;;;;;40.15;21.02;;;1.90;99.90;;;;;;4937931;29;20187;-77
2021/12/23 00:41:08;;;;;;;39.38;20.45;;;1.70;99.90;;;;;;4938419;28;20182;-77
2021/12/23 00:43:34;;;;;;;34.63;19.48;;;1.80;99.90;;;;;;4938029;29;20186;-77
2021/12/23 00:46:01;;;;;;;35.25;18.48;;;1.70;99.90;;;;;;4938204;29;20171;-77
2021/12/23 00:48:27;;;;;;;36.20;19.73;;;1.40;99.90;;;;;;4937717;29;20214;-78
2021/12/23 00:50:53;;;;;;;39.63;20.60;;;1.40;99.90;;;;;;4936263;29;20585;-78
2021/12/23 00:53:21;;;;;;;36.08;19.45;;;1.30;99.90;;;;;;4937354;29;20189;-83
2021/12/23 00:55:52;;;;;;;44.65;20.38;;;1.50;99.90;;;;;;4937671;28;20535;-76
2021/12/23 00:58:18;;;;;;;46.10;19.20;;;1.60;99.90;;;;;;4937603;29;20938;-77
2021/12/23 01:00:46;;;;;;;38.03;18.33;;;1.70;99.90;;;;;;4937634;28;20206;-77
2021/12/23 01:03:12;;;;;;;42.20;19.52;;;1.70;99.90;;;;;;4937647;29;20177;-85
2021/12/23 01:05:38;;;;;;;41.25;20.02;;;1.60;99.90;;;;;;4937425;29;20182;-78
2021/12/23 01:08:04;;;;;;;46.42;19.88;;;1.50;99.90;;;;;;4937348;29;20227;-78
2021/12/23 01:10:30;;;;;;;38.38;19.23;;;1.50;99.90;;;;;;4936356;29;20238;-84
2021/12/23 01:13:02;;;;;;;45.47;21.02;;;1.60;99.90;;;;;;4937304;29;20167;-77
2021/12/23 01:18:08;;;;;;;42.13;17.97;;;1.70;99.90;;;;;;4937728;29;20195;-78
2021/12/23 01:20:36;;;;;;;41.35;20.30;;;1.70;99.90;;;;;;4937482;29;20254;-78
2021/12/23 01:23:07;;;;;;;44.30;20.23;;;1.80;99.90;;;;;;4937532;29;20528;-77
2021/12/23 01:25:36;;;;;;;49.67;23.33;;;2.00;99.90;;;;;;4937518;29;20207;-78
2021/12/23 01:28:02;;;;;;;47.92;21.15;;;1.80;99.90;;;;;;4937238;28;20195;-77
2021/12/23 01:30:29;;;;;;;39.17;18.48;;;1.80;99.90;;;;;;4937086;29;20214;-78
2021/12/23 01:32:56;;;;;;;42.97;21.45;;;2.00;99.90;;;;;;4937045;29;20172;-77
2021/12/23 01:35:24;;;;;;;43.67;20.20;;;2.00;99.90;;;;;;4937209;29;20175;-78
2021/12/23 01:37:50;;;;;;;40.33;20.30;;;2.20;99.90;;;;;;4936952;29;20600;-77
2021/12/23 01:40:18;;;;;;;42.28;19.85;;;2.20;99.90;;;;;;4936671;29;20175;-77
2021/12/23 01:42:44;;;;;;;41.53;19.73;;;2.30;99.90;;;;;;4936839;29;20176;-77
2021/12/23 01:45:12;;;;;;;44.28;20.67;;;2.30;99.90;;;;;;4936495;29;20171;-77
2021/12/23 01:47:38;;;;;;;36.75;19.42;;;2.20;99.90;;;;;;4936889;29;20657;-77
2021/12/23 01:50:04;;;;;;;43.10;21.05;;;2.20;99.90;;;;;;4940507;29;20207;-77
2021/12/23 01:52:30;;;;;;;42.78;19.08;;;2.40;99.90;;;;;;4938604;29;20191;-80
2021/12/23 01:54:56;;;;;;;37.30;18.67;;;2.40;99.90;;;;;;4939128;29;20171;-76
2021/12/23 01:57:23;;;;;;;43.00;19.92;;;2.40;99.90;;;;;;4939064;29;20187;-78
2021/12/23 01:59:48;;;;;;;40.60;19.00;;;2.70;99.90;;;;;;4937686;29;20179;-76
2021/12/23 02:02:14;;;;;;;40.20;19.00;;;2.80;99.90;;;;;;4941354;29;20175;-77
2021/12/23 02:04:40;;;;;;;43.75;18.15;;;2.70;99.90;;;;;;4954887;28;20167;-77
2021/12/23 02:07:05;;;;;;;44.63;20.40;;;2.30;99.90;;;;;;4937921;29;20186;-78
2021/12/23 02:09:31;;;;;;;41.95;19.33;;;2.20;99.90;;;;;;4935871;29;20214;-78
2021/12/23 02:11:57;;;;;;;46.05;19.42;;;2.40;99.90;;;;;;4941967;29;20513;-77
2021/12/23 02:14:23;;;;;;;46.60;21.98;;;2.40;99.90;;;;;;4946640;29;20175;-78
2021/12/23 02:16:49;;;;;;;50.35;21.27;;;2.50;99.90;;;;;;4947079;29;20172;-79
2021/12/23 02:19:17;;;;;;;47.65;21.88;;;2.20;99.90;;;;;;4944743;29;20656;-76
2021/12/23 02:21:43;;;;;;;37.05;19.25;;;2.20;99.90;;;;;;4945046;29;20175;-78
2021/12/23 02:24:09;;;;;;;52.20;21.60;;;2.20;99.90;;;;;;4944017;29;20711;-77
2021/12/23 02:26:40;;;;;;;42.55;20.45;;;2.20;99.90;;;;;;4959123;28;20230;-77
2021/12/23 02:29:06;;;;;;;44.63;20.50;;;2.10;99.90;;;;;;4947298;29;20187;-80
2021/12/23 02:31:32;;;;;;;43.10;20.75;;;2.00;99.90;;;;;;4944994;29;20186;-79
2021/12/23 02:33:58;;;;;;;49.47;21.38;;;2.00;99.90;;;;;;4943439;29;20687;-77
2021/12/23 02:36:24;;;;;;;46.78;20.70;;;2.10;99.90;;;;;;4953415;28;20183;-77
2021/12/23 02:38:49;;;;;;;40.10;20.08;;;2.10;99.90;;;;;;4938624;29;20191;-76
2021/12/23 02:41:15;;;;;;;39.85;19.38;;;2.10;99.90;;;;;;4937809;29;20235;-78
2021/12/23 02:43:41;;;;;;;44.05;18.75;;;2.10;99.90;;;;;;4939144;29;20175;-77
2021/12/23 02:46:06;;;;;;;42.17;18.13;;;2.30;99.90;;;;;;4939702;29;20527;-77
2021/12/23 02:48:34;;;;;;;34.97;16.83;;;2.40;99.90;;;;;;4938844;29;20731;-76
2021/12/23 02:51:05;;;;;;;39.95;18.48;;;2.30;99.90;;;;;;4937760;29;20207;-77
2021/12/23 02:53:31;;;;;;;45.95;20.83;;;2.30;99.90;;;;;;4939160;29;20191;-76
2021/12/23 02:55:59;;;;;;;55.30;20.75;;;2.40;99.90;;;;;;4937644;29;20171;-78
2021/12/23 02:58:25;;;;;;;39.13;18.10;;;2.30;99.90;;;;;;4939633;29;20199;-77
2021/12/23 03:00:52;;;;;;;50.28;20.65;;;2.50;99.90;;;;;;4942727;29;20175;-77
2021/12/23 03:03:18;;;;;;;40.60;18.63;;;2.30;99.90;;;;;;4944866;29;20659;-77
2021/12/23 03:05:56;;;;;;;46.45;19.67;;;2.10;99.90;;;;;;4936856;29;20167;-76
2021/12/23 03:08:43;;;;;;;42.85;18.15;;;2.00;99.90;;;;;;4935504;29;20199;-77
2021/12/23 03:11:11;;;;;;;42.28;17.10;;;2.10;99.90;;;;;;4943446;29;20207;-76
2021/12/23 03:13:37;;;;;;;40.28;17.23;;;2.20;99.90;;;;;;4935505;29;20629;-77
2021/12/23 03:16:04;;;;;;;39.50;17.10;;;2.10;99.90;;;;;;4943565;29;20171;-78
2021/12/23 03:18:30;;;;;;;35.40;17.67;;;2.00;99.90;;;;;;4939068;29;20704;-77
2021/12/23 03:20:56;;;;;;;37.35;17.42;;;2.10;99.90;;;;;;4939665;29;20172;-78
2021/12/23 03:23:22;;;;;;;42.97;19.52;;;2.20;99.90;;;;;;4940232;29;20361;-77
2021/12/23 03:25:48;;;;;;;35.75;17.75;;;2.20;99.90;;;;;;4934900;29;20191;-79
2021/12/23 03:28:14;;;;;;;33.65;17.30;;;2.30;99.90;;;;;;4934972;29;20191;-77
2021/12/23 03:30:40;;;;;;;43.58;17.23;;;2.30;99.90;;;;;;4935038;29;20297;-85
2021/12/23 03:33:06;;;;;;;44.78;19.05;;;2.30;99.90;;;;;;4935031;29;20275;-77
2021/12/23 03:35:31;;;;;;;36.70;18.15;;;2.30;99.90;;;;;;4934785;29;20247;-77
2021/12/23 03:37:58;;;;;;;33.80;17.25;;;2.30;99.90;;;;;;4934772;28;20191;-77
2021/12/23 03:40:24;;;;;;;37.50;17.25;;;2.30;99.90;;;;;;4949703;28;20266;-77
2021/12/23 03:42:50;;;;;;;39.10;18.70;;;2.20;99.90;;;;;;4935205;29;20189;-77
2021/12/23 03:45:16;;;;;;;42.22;18.55;;;2.30;99.90;;;;;;4934765;29;20699;-77
2021/12/23 03:47:42;;;;;;;40.90;17.92;;;2.20;99.90;;;;;;4934726;29;20218;-77
2021/12/23 03:50:08;;;;;;;42.40;18.90;;;2.10;99.90;;;;;;4934692;29;20611;-77
2021/12/23 03:52:34;;;;;;;42.72;19.80;;;2.30;99.90;;;;;;4934984;29;20183;-76
2021/12/23 03:55:01;;;;;;;48.10;20.00;;;2.50;99.90;;;;;;4933726;29;20175;-77
2021/12/23 03:57:27;;;;;;;38.58;17.55;;;2.50;99.90;;;;;;4934908;29;20174;-76
2021/12/23 03:59:53;;;;;;;34.45;16.90;;;2.50;99.90;;;;;;4949572;28;20175;-77
2021/12/23 04:02:18;;;;;;;41.78;18.48;;;2.50;99.90;;;;;;4934849;29;20168;-81
2021/12/23 04:04:44;;;;;;;38.47;17.17;;;2.50;99.90;;;;;;4934997;29;20175;-77
2021/12/23 04:07:10;;;;;;;36.78;17.38;;;2.30;99.90;;;;;;4934874;29;20195;-77
2021/12/23 04:09:35;;;;;;;39.00;17.73;;;2.20;99.90;;;;;;4949283;28;20214;-77
2021/12/23 04:12:01;;;;;;;39.78;18.13;;;2.30;99.90;;;;;;4934531;29;20236;-77
2021/12/23 04:14:27;;;;;;;41.72;18.52;;;2.20;99.90;;;;;;4934779;29;20171;-84
2021/12/23 04:16:52;;;;;;;36.03;16.67;;;2.30;99.90;;;;;;4934914;29;20179;-78
2021/12/23 04:19:19;;;;;;;38.60;17.15;;;2.00;99.90;;;;;;4949658;28;20230;-77
2021/12/23 04:21:44;;;;;;;42.63;17.50;;;2.00;99.90;;;;;;4934509;29;20172;-77
2021/12/23 04:24:11;;;;;;;48.78;18.42;;;2.20;99.90;;;;;;4934614;29;20230;-77
2021/12/23 04:26:38;;;;;;;48.83;18.83;;;2.20;99.90;;;;;;4934924;29;20164;-77
2021/12/23 04:29:05;;;;;;;43.55;17.95;;;2.20;99.90;;;;;;4937537;29;20195;-81
2021/12/23 04:31:31;;;;;;;41.88;19.40;;;2.20;99.90;;;;;;4938031;29;20214;-82
2021/12/23 04:33:57;;;;;;;37.25;17.10;;;2.20;99.90;;;;;;4938082;29;20206;-77
2021/12/23 04:36:33;;;;;;;50.65;19.67;;;2.30;99.90;;;;;;4937898;29;20206;-77
2021/12/23 04:39:01;;;;;;;42.08;17.13;;;2.20;99.90;;;;;;4937865;29;20266;-77
2021/12/23 04:41:27;;;;;;;41.88;18.00;;;2.30;99.90;;;;;;4937825;29;20171;-76
2021/12/23 04:43:54;;;;;;;38.92;17.52;;;2.40;99.90;;;;;;4937924;29;20250;-84
2021/12/23 04:46:20;;;;;;;40.72;18.83;;;2.50;99.90;;;;;;4937990;29;20163;-77
2021/12/23 04:48:47;;;;;;;42.92;18.42;;;2.30;99.90;;;;;;4936777;29;20598;-77
2021/12/23 04:51:13;;;;;;;40.85;18.05;;;2.50;99.90;;;;;;4937758;29;20278;-84
2021/12/23 04:53:39;;;;;;;48.60;20.05;;;2.60;99.90;;;;;;4936415;29;20198;-77
2021/12/23 04:56:05;;;;;;;44.30;18.80;;;2.60;99.90;;;;;;4937668;29;20179;-77
2021/12/23 04:58:30;;;;;;;35.95;16.80;;;2.60;99.90;;;;;;4936284;29;20237;-84
2021/12/23 05:00:56;;;;;;;45.22;17.13;;;2.60;99.90;;;;;;4937429;29;20257;-77
2021/12/23 05:03:24;;;;;;;31.75;16.85;;;2.60;99.90;;;;;;4937588;29;20178;-77
2021/12/23 05:05:51;;;;;;;46.67;18.70;;;2.50;99.90;;;;;;4937366;29;20195;-77
2021/12/23 05:08:18;;;;;;;29.60;16.05;;;2.60;99.90;;;;;;4937244;29;20179;-77
2021/12/23 05:10:45;;;;;;;38.85;17.17;;;2.60;99.90;;;;;;4937341;29;20202;-78
2021/12/23 05:13:11;;;;;;;42.60;18.58;;;2.50;99.90;;;;;;4937106;29;20168;-77
2021/12/23 05:15:37;;;;;;;46.17;18.58;;;2.50;99.90;;;;;;4937160;29;20176;-77
2021/12/23 05:18:04;;;;;;;38.53;17.33;;;2.60;99.90;;;;;;4936997;29;20201;-77
2021/12/23 05:20:30;;;;;;;37.75;18.30;;;2.80;99.90;;;;;;4937007;29;20260;-76
2021/12/23 05:22:56;;;;;;;33.92;17.70;;;2.80;99.90;;;;;;4937442;29;20626;-77
2021/12/23 05:25:22;;;;;;;43.53;17.90;;;2.90;99.90;;;;;;4937178;29;20620;-77
2021/12/23 05:27:48;;;;;;;31.90;15.77;;;3.00;99.90;;;;;;4936812;29;20263;-78
2021/12/23 05:30:16;;;;;;;39.97;17.83;;;2.80;99.90;;;;;;4937037;29;20211;-77
2021/12/23 05:32:43;;;;;;;34.15;16.45;;;2.90;99.90;;;;;;4950188;29;20164;-77
2021/12/23 05:35:11;;;;;;;34.80;16.55;;;2.80;99.90;;;;;;4947936;29;20265;-76
2021/12/23 05:37:37;;;;;;;37.28;16.38;;;2.70;99.90;;;;;;4940468;29;20186;-76
2021/12/23 05:40:04;;;;;;;33.40;16.67;;;2.80;99.90;;;;;;4939088;29;20547;-80
2021/12/23 05:42:30;;;;;;;34.75;16.88;;;2.90;99.90;;;;;;4939557;29;20549;-77
2021/12/23 05:44:55;;;;;;;31.55;16.23;;;3.10;99.90;;;;;;4939015;29;20250;-77
2021/12/23 05:47:21;;;;;;;32.65;16.58;;;3.10;99.90;;;;;;4939760;29;20171;-83
2021/12/23 05:49:47;;;;;;;33.67;16.25;;;3.00;99.90;;;;;;4939339;29;20222;-77
2021/12/23 05:52:12;;;;;;;35.95;17.00;;;2.90;99.90;;;;;;4938600;29;20285;-78
2021/12/23 05:54:38;;;;;;;38.85;16.25;;;2.90;99.90;;;;;;4937989;29;20167;-80
2021/12/23 05:57:04;;;;;;;45.78;17.35;;;3.00;99.90;;;;;;4938939;29;20162;-77
2021/12/23 05:59:34;;;;;;;33.47;17.10;;;3.10;99.90;;;;;;4938458;29;20191;-82
2021/12/23 06:02:00;;;;;;;34.78;15.98;;;3.30;99.90;;;;;;4938366;29;20254;-83
2021/12/23 06:04:26;;;;;;;38.65;17.02;;;3.50;99.90;;;;;;4940012;29;20168;-77
2021/12/23 06:06:52;;;;;;;38.72;16.45;;;3.40;99.90;;;;;;4939030;29;20205;-78
2021/12/23 06:09:18;;;;;;;37.03;17.65;;;3.50;99.90;;;;;;4938105;29;20187;-78
2021/12/23 06:11:44;;;;;;;37.05;16.23;;;3.50;99.90;;;;;;4938758;29;20695;-78
2021/12/23 06:14:10;;;;;;;34.40;16.63;;;3.50;99.90;;;;;;4938863;29;20250;-77
2021/12/23 06:16:35;;;;;;;37.53;17.08;;;3.80;99.90;;;;;;4938334;29;20250;-79
2021/12/23 06:19:01;;;;;;;37.30;17.83;;;3.80;99.90;;;;;;4937197;29;20198;-84
2021/12/23 06:21:29;;;;;;;36.58;17.40;;;4.00;99.90;;;;;;4938518;29;20531;-78
2021/12/23 06:23:55;;;;;;;33.25;15.07;;;3.90;99.90;;;;;;4938681;29;20266;-78
2021/12/23 06:26:22;;;;;;;37.58;16.23;;;3.80;99.90;;;;;;4938739;29;20246;-77
2021/12/23 06:28:48;;;;;;;39.95;17.27;;;3.70;99.90;;;;;;4939061;29;20194;-84
2021/12/23 06:31:14;;;;;;;37.42;16.95;;;3.70;99.90;;;;;;4938620;29;20222;-77
2021/12/23 06:33:39;;;;;;;35.17;16.98;;;3.80;99.90;;;;;;4938139;29;20533;-76
2021/12/23 06:36:05;;;;;;;37.03;17.52;;;3.60;99.90;;;;;;4938574;29;20163;-83
2021/12/23 06:38:31;;;;;;;34.67;15.90;;;3.70;99.90;;;;;;4939176;29;20203;-82
2021/12/23 06:40:57;;;;;;;33.92;16.10;;;3.70;99.90;;;;;;4953760;28;20636;-78
2021/12/23 06:43:22;;;;;;;38.85;18.60;;;3.70;99.90;;;;;;4939658;29;20167;-77
2021/12/23 06:45:48;;;;;;;32.85;15.60;;;3.90;99.90;;;;;;4940023;29;20199;-78
2021/12/23 06:48:14;;;;;;;30.98;15.60;;;4.00;99.90;;;;;;4953839;28;20694;-78
2021/12/23 06:50:39;;;;;;;44.08;16.83;;;3.90;99.90;;;;;;4938533;29;20230;-77
2021/12/23 06:53:05;;;;;;;36.22;16.77;;;3.90;99.90;;;;;;4938519;29;20194;-76
2021/12/23 06:55:31;;;;;;;37.25;17.55;;;3.90;99.90;;;;;;4935909;29;20603;-78
2021/12/23 06:57:57;;;;;;;34.00;15.10;;;4.10;99.90;;;;;;4935677;29;20614;-83
2021/12/23 07:00:26;;;;;;;25.60;14.82;;;4.00;99.90;;;;;;4935581;29;20179;-78
2021/12/23 07:02:52;;;;;;;32.05;15.63;;;4.00;99.90;;;;;;4935430;29;20160;-78
2021/12/23 07:05:18;;;;;;;30.45;16.48;;;4.10;99.90;;;;;;4935239;29;20189;-78
2021/12/23 07:07:54;;;;;;;31.85;16.15;;;4.20;99.90;;;;;;4934427;29;20684;-77
2021/12/23 07:10:22;;;;;;;29.38;15.20;;;4.30;99.90;;;;;;4934807;29;20210;-76
2021/12/23 07:12:48;;;;;;;36.78;15.38;;;4.40;99.90;;;;;;4934957;29;20215;-78
2021/12/23 07:15:14;;;;;;;29.27;14.98;;;4.40;99.90;;;;;;4934965;29;20170;-77
2021/12/23 07:17:40;;;;;;;31.23;15.65;;;4.50;99.90;;;;;;4935163;29;20677;-78
2021/12/23 07:20:07;;;;;;;34.38;15.30;;;4.50;99.90;;;;;;4935154;29;20179;-78
2021/12/23 07:22:32;;;;;;;27.90;14.82;;;4.50;99.90;;;;;;4934772;29;20170;-83
2021/12/23 07:24:58;;;;;;;28.85;14.20;;;4.30;99.90;;;;;;4934799;29;20270;-78
2021/12/23 07:27:23;;;;;;;28.10;14.50;;;4.40;99.90;;;;;;4935238;29;20167;-78
2021/12/23 07:29:49;;;;;;;27.20;15.20;;;4.30;99.90;;;;;;4935275;29;20210;-80
2021/12/23 07:32:15;;;;;;;23.15;13.80;;;4.50;99.90;;;;;;4934876;29;20175;-78
2021/12/23 07:34:42;;;;;;;28.73;15.15;;;4.30;99.90;;;;;;4935325;29;20179;-78
2021/12/23 07:37:09;;;;;;;28.50;15.85;;;4.40;99.90;;;;;;4934806;29;20167;-78
2021/12/23 07:39:36;;;;;;;34.40;15.32;;;4.30;99.90;;;;;;4934654;29;20191;-79
2021/12/23 07:42:02;;;;;;;28.75;14.82;;;4.40;99.90;;;;;;4935034;29;20164;-78
2021/12/23 07:44:29;;;;;;;29.92;15.02;;;4.40;99.90;;;;;;4935116;29;20179;-76
2021/12/23 07:46:54;;;;;;;28.00;14.85;;;4.50;99.90;;;;;;4934653;29;20171;-76
2021/12/23 07:49:20;;;;;;;34.83;14.18;;;4.50;99.90;;;;;;4934632;28;20198;-75
2021/12/23 07:51:46;;;;;;;27.98;13.70;;;4.30;99.90;;;;;;4934658;29;20206;-77
2021/12/23 07:54:12;;;;;;;29.33;14.07;;;4.40;99.90;;;;;;4934523;29;20548;-79
2021/12/23 07:56:38;;;;;;;32.10;14.02;;;4.50;99.90;;;;;;4934737;29;20640;-75
2021/12/23 07:59:03;;;;;;;34.53;14.52;;;4.60;99.90;;;;;;4934757;29;20664;-76
2021/12/23 08:01:29;;;;;;;32.88;14.95;;;4.70;99.90;;;;;;4935182;29;20214;-75
2021/12/23 08:03:55;;;;;;;31.75;14.95;;;4.80;99.90;;;;;;4942154;29;20183;-76
2021/12/23 08:06:20;;;;;;;27.50;13.98;;;4.90;99.90;;;;;;4950961;29;20191;-75
2021/12/23 08:08:46;;;;;;;22.02;13.13;;;5.00;99.90;;;;;;4944157;29;20194;-76
2021/12/23 08:11:12;;;;;;;29.95;14.05;;;4.80;99.90;;;;;;4938372;29;20676;-75
2021/12/23 08:13:38;;;;;;;25.77;14.45;;;4.80;99.90;;;;;;4938386;29;20167;-76
2021/12/23 08:16:04;;;;;;;31.88;13.52;;;5.00;99.90;;;;;;4938721;29;20171;-82
2021/12/23 08:18:31;;;;;;;26.00;14.05;;;5.00;99.90;;;;;;4938271;29;20205;-75
2021/12/23 08:20:58;;;;;;;25.13;13.15;;;5.10;99.90;;;;;;4937920;29;20163;-77
2021/12/23 08:23:25;;;;;;;27.10;13.85;;;5.10;99.90;;;;;;4938134;29;20191;-76
2021/12/23 08:25:50;;;;;;;30.67;14.65;;;5.00;99.90;;;;;;4937462;29;20159;-76
2021/12/23 08:28:16;;;;;;;24.48;14.20;;;5.00;99.90;;;;;;4937332;29;20234;-77
2021/12/23 08:30:43;;;;;;;35.40;14.52;;;5.00;99.90;;;;;;4937525;29;20305;-76
2021/12/23 08:33:09;;;;;;;39.03;13.88;;;5.00;99.90;;;;;;4937674;29;20199;-76
2021/12/23 08:35:36;;;;;;;24.60;12.45;;;5.00;99.90;;;;;;4937192;29;20183;-76
2021/12/23 08:38:03;;;;;;;21.50;12.73;;;4.90;99.90;;;;;;4937770;29;20191;-76
2021/12/23 08:40:29;;;;;;;23.05;12.50;;;5.00;99.90;;;;;;4941232;29;20187;-75
2021/12/23 08:42:59;;;;;;;20.38;12.18;;;5.00;99.90;;;;;;4954108;29;20262;-77
2021/12/23 08:45:30;;;;;;;27.48;12.63;;;5.00;99.90;;;;;;4953458;29;20191;-76
2021/12/23 08:47:56;;;;;;;27.55;14.15;;;4.90;99.90;;;;;;4949630;29;20251;-77
2021/12/23 08:50:25;;;;;;;29.98;13.40;;;5.20;99.90;;;;;;4943227;29;20203;-76
2021/12/23 08:52:51;;;;;;;25.83;12.52;;;5.40;99.90;;;;;;4941882;29;20191;-75
2021/12/23 08:55:18;;;;;;;23.25;12.95;;;5.40;99.90;;;;;;4938460;29;20195;-76
2021/12/23 08:57:44;;;;;;;26.08;13.07;;;5.50;99.90;;;;;;4939023;29;20607;-75
2021/12/23 09:00:14;;;;;;;23.02;12.85;;;5.30;99.90;;;;;;4938784;29;20178;-76
2021/12/23 09:02:40;;;;;;;23.95;12.82;;;5.40;99.90;;;;;;4937952;29;20254;-76
2021/12/23 09:05:07;;;;;;;21.35;12.07;;;5.50;99.90;;;;;;4938024;29;20210;-79
2021/12/23 09:07:33;;;;;;;23.13;12.93;;;5.70;99.90;;;;;;4952315;28;20712;-76
2021/12/23 09:09:58;;;;;;;19.00;11.65;;;5.70;99.90;;;;;;4937764;29;20343;-76
2021/12/23 09:12:25;;;;;;;24.67;13.20;;;5.70;99.90;;;;;;4937792;29;20168;-77
2021/12/23 09:14:51;;;;;;;28.95;14.60;;;5.60;99.90;;;;;;4937536;29;20521;-76
2021/12/23 09:17:17;;;;;;;26.23;11.50;;;5.60;99.90;;;;;;4937632;29;20171;-78
2021/12/23 09:19:43;;;;;;;22.00;12.43;;;5.80;99.90;;;;;;4937356;29;20537;-76
2021/12/23 09:22:09;;;;;;;30.20;12.18;;;5.70;99.90;;;;;;4937481;29;20182;-78
2021/12/23 09:24:37;;;;;;;24.55;13.23;;;5.60;99.90;;;;;;4937442;29;20187;-78
2021/12/23 09:27:44;;;;;;;22.02;12.30;;;5.70;99.90;;;;;;4937576;29;20210;-78
2021/12/23 09:32:52;;;;;;;23.17;13.25;;;5.70;99.90;;;;;;4937189;29;20172;-78
2021/12/23 09:35:20;;;;;;;27.80;14.57;;;5.80;99.90;;;;;;4936911;29;20231;-78
2021/12/23 09:37:45;;;;;;;33.75;12.77;;;5.50;99.90;;;;;;4936768;29;20191;-78
2021/12/23 09:40:11;;;;;;;24.30;12.52;;;5.50;99.90;;;;;;4936904;29;20259;-78
2021/12/23 09:42:38;;;;;;;20.50;12.35;;;5.60;99.90;;;;;;4936636;29;20616;-78
2021/12/23 09:45:07;;;;;;;24.70;13.02;;;5.70;99.90;;;;;;4936246;29;20178;-78
2021/12/23 09:47:34;;;;;;;28.35;13.88;;;5.90;99.90;;;;;;4936449;29;20559;-77
2021/12/23 09:50:04;;;;;;;23.92;13.32;;;5.70;99.90;;;;;;4936401;29;20676;-78
2021/12/23 09:52:33;;;;;;;21.58;14.10;;;5.90;99.90;;;;;;4936607;29;20190;-78
2021/12/23 09:55:01;;;;;;;25.23;14.80;;;6.00;99.90;;;;;;4936382;29;20190;-84
2021/12/23 09:57:28;;;;;;;24.30;14.00;;;6.00;99.90;;;;;;4936786;29;20550;-78
2021/12/23 09:59:54;;;;;;;24.27;13.50;;;6.00;99.90;;;;;;4936169;29;20167;-76
2021/12/23 10:02:20;;;;;;;25.52;13.07;;;6.10;99.90;;;;;;4935947;29;20230;-79
2021/12/23 10:04:46;;;;;;;25.42;12.70;;;6.10;99.90;;;;;;4950689;28;20179;-76
2021/12/23 10:07:12;;;;;;;23.67;13.25;;;6.00;99.90;;;;;;4936114;29;20574;-77
2021/12/23 10:09:49;;;;;;;24.77;14.25;;;6.00;99.90;;;;;;4935391;29;20806;-79
2021/12/23 10:39:34;;;;;;;33.67;15.38;;;5.80;99.90;;;;;;4935137;29;20195;-80
2021/12/23 10:42:32;;;;;;;27.98;14.73;;;5.90;99.90;;;;;;4935358;29;20175;-78
2021/12/23 10:45:00;;;;;;;31.02;15.82;;;6.10;99.90;;;;;;4912804;29;20187;-76
2021/12/23 10:47:43;;;;;;;25.23;15.27;;;6.20;99.90;;;;;;4935530;29;20230;-76
2021/12/23 10:50:29;;;;;;;24.08;13.85;;;6.30;99.90;;;;;;4935523;29;20207;-77
2021/12/23 10:53:09;;;;;;;27.02;14.07;;;6.20;99.90;;;;;;4950220;28;20210;-75
2021/12/23 10:58:21;;;;;;;28.38;13.93;;;6.20;99.90;;;;;;4935623;29;20305;-75
2021/12/23 11:00:50;;;;;;;29.20;16.00;;;6.00;99.90;;;;;;4935070;29;20169;-75
2021/12/23 11:03:33;;;;;;;31.20;15.45;;;6.20;99.90;;;;;;4934996;29;20179;-81
2021/12/23 11:06:28;;;;;;;27.08;15.82;;;6.20;99.90;;;;;;4935457;28;20561;-76
2021/12/23 11:32:14;;;;;;;31.98;15.07;;;6.90;99.90;;;;;;4916119;29;20280;-76
2021/12/23 11:44:31;;;;;;;26.75;15.73;;;7.20;99.90;;;;;;4919308;29;20176;-77
2021/12/23 11:47:07;;;;;;;32.92;15.20;;;7.10;99.90;;;;;;4919417;29;20178;-79
2021/12/23 11:49:36;;;;;;;25.70;14.35;;;7.30;99.90;;;;;;4920114;29;20198;-76
2021/12/23 11:52:02;;;;;;;30.13;17.23;;;7.40;99.90;;;;;;4920561;29;20203;-77
2021/12/23 11:54:38;;;;;;;30.67;16.25;;;7.30;99.90;;;;;;4919831;29;20262;-78
2021/12/23 11:57:14;;;;;;;29.08;17.63;;;7.30;99.90;;;;;;4919840;29;20529;-81
2021/12/23 11:59:42;;;;;;;25.88;15.50;;;7.30;99.90;;;;;;4919656;29;20168;-77
2021/12/23 12:02:21;;;;;;;28.23;15.90;;;7.30;99.90;;;;;;4919566;29;20169;-75
2021/12/23 12:04:48;;;;;;;26.85;15.50;;;7.40;99.90;;;;;;4931510;29;20197;-85
2021/12/23 12:07:23;;;;;;;31.17;15.63;;;7.20;99.90;;;;;;4938667;29;20659;-75
2021/12/23 12:10:03;;;;;;;30.85;14.70;;;7.10;99.90;;;;;;4967349;28;20202;-86
2021/12/23 12:12:32;;;;;;;34.28;16.58;;;7.20;99.90;;;;;;4934351;29;20258;-85
2021/12/23 12:14:59;;;;;;;22.85;13.93;;;7.20;99.90;;;;;;4953831;28;20167;-78
2021/12/23 12:17:33;;;;;;;27.23;15.85;;;7.30;99.90;;;;;;4948086;29;20179;-78
2021/12/23 12:20:24;;;;;;;25.80;15.25;;;7.30;99.90;;;;;;4957444;28;20162;-77
2021/12/23 12:23:05;;;;;;;33.58;14.52;;;7.10;99.90;;;;;;4951733;28;20178;-78
2021/12/23 12:25:30;;;;;;;24.50;14.60;;;6.90;99.90;;;;;;4938193;29;20177;-77
2021/12/23 12:27:56;;;;;;;26.60;15.10;;;6.90;99.90;;;;;;4938047;29;20207;-84
2021/12/23 12:30:38;;;;;;;26.63;14.98;;;6.90;99.90;;;;;;4938543;29;20217;-78
2021/12/23 12:33:24;;;;;;;32.35;15.00;;;6.70;99.90;;;;;;4951132;29;20174;-77
2021/12/23 12:36:02;;;;;;;28.67;15.18;;;6.60;99.90;;;;;;4954606;28;20248;-86
2021/12/23 12:38:29;;;;;;;27.88;15.02;;;6.60;99.90;;;;;;4956289;28;20197;-78
2021/12/23 12:41:06;;;;;;;22.90;14.63;;;6.70;99.90;;;;;;4954876;29;20695;-81
2021/12/23 12:43:49;;;;;;;26.75;15.15;;;6.80;99.90;;;;;;4947087;28;20186;-80
2021/12/23 12:46:22;;;;;;;27.10;15.55;;;6.90;99.90;;;;;;4938251;29;20167;-78
2021/12/23 12:48:58;;;;;;;25.10;15.30;;;7.00;99.90;;;;;;4937071;29;20676;-77
2021/12/23 12:51:33;;;;;;;27.83;15.90;;;7.10;99.90;;;;;;4937418;29;20206;-77
2021/12/23 12:54:04;;;;;;;26.55;15.20;;;7.20;99.90;;;;;;4936015;29;20190;-75
2021/12/23 12:56:32;;;;;;;29.40;15.20;;;7.10;99.90;;;;;;4937660;29;20171;-76
2021/12/23 12:58:58;;;;;;;29.65;16.08;;;7.10;99.90;;;;;;4938216;29;20187;-86
2021/12/23 13:01:33;;;;;;;29.10;14.40;;;7.10;99.90;;;;;;4938667;29;20187;-84
2021/12/23 13:04:00;;;;;;;29.30;16.08;;;7.10;99.90;;;;;;4935716;29;20182;-77
2021/12/23 13:06:40;;;;;;;26.23;15.05;;;7.00;99.90;;;;;;4937775;29;20171;-77
2021/12/23 13:09:11;;;;;;;24.73;14.10;;;7.00;99.90;;;;;;4937584;29;20672;-78
2021/12/23 13:11:43;;;;;;;27.35;14.60;;;6.80;99.90;;;;;;4952512;28;20297;-86
2021/12/23 13:14:14;;;;;;;27.77;14.32;;;6.70;99.90;;;;;;4952724;28;20171;-90
2021/12/23 13:16:57;;;;;;;25.23;14.32;;;6.50;99.90;;;;;;4937894;29;20167;-79
2021/12/23 13:19:30;;;;;;;30.92;15.85;;;6.60;99.90;;;;;;4937373;29;20205;-84
2021/12/23 13:21:57;;;;;;;27.23;14.75;;;6.60;99.90;;;;;;4937574;29;20179;-81
2021/12/23 13:24:25;;;;;;;27.92;14.90;;;6.60;99.90;;;;;;4937636;29;20176;-85
2021/12/23 13:26:53;;;;;;;34.08;16.45;;;6.50;99.90;;;;;;4938208;29;20171;-89
2021/12/23 13:29:22;;;;;;;33.95;15.82;;;6.30;99.90;;;;;;4951708;28;20203;-82
2021/12/23 13:31:50;;;;;;;27.75;15.00;;;6.30;99.90;;;;;;4937178;29;20206;-80
2021/12/23 13:34:22;;;;;;;32.22;16.55;;;6.20;99.90;;;;;;4936995;29;20291;-81
2021/12/23 13:36:51;;;;;;;28.98;14.70;;;6.20;99.90;;;;;;4937324;29;20632;-83
2021/12/23 13:39:28;;;;;;;33.17;16.17;;;6.30;99.90;;;;;;4936990;29;20188;-80
2021/12/23 13:42:03;;;;;;;32.45;15.48;;;6.40;99.90;;;;;;4951431;28;20179;-80
2021/12/23 13:44:34;;;;;;;42.97;17.40;;;6.30;99.90;;;;;;4936685;29;20202;-79
2021/12/23 13:47:12;;;;;;;34.03;15.88;;;6.20;99.90;;;;;;4936781;29;20196;-79
2021/12/23 13:49:54;;;;;;;36.10;16.92;;;6.20;99.90;;;;;;4951760;28;20221;-85
2021/12/23 13:52:22;;;;;;;32.05;16.40;;;6.20;99.90;;;;;;4951282;28;20175;-83
2021/12/23 13:54:48;;;;;;;34.13;17.27;;;6.30;99.90;;;;;;4936988;29;20210;-80